sensor_id;sensor_type;location;lat;lon;timestamp;pressure;altitude;pressure_sealevel;temperature;humidity
20630;BME280;17386;43.846;25.950;2022-08-01T00:00:25;100726.91;;;23.59;60.02
20630;BME280;17386;43.846;25.950;2022-08-01T00:02:51;100730.41;;;23.61;59.89
20630;BME280;17386;43.846;25.950;2022-08-01T00:05:17;100724.84;;;23.62;59.85
20630;BME280;17386;43.846;25.950;2022-08-01T00:07:42;100726.53;;;23.63;59.62
20630;BME280;17386;43.846;25.950;2022-08-01T00:10:10;100732.19;;;23.60;59.58
20630;BME280;17386;43.846;25.950;2022-08-01T00:12:36;100738.06;;;23.56;59.91
20630;BME280;17386;43.846;25.950;2022-08-01T00:15:03;100730.63;;;23.58;59.97
20630;BME280;17386;43.846;25.950;2022-08-01T00:17:29;100730.47;;;23.59;60.04
20630;BME280;17386;43.846;25.950;2022-08-01T00:19:54;100727.78;;;23.59;59.98
20630;BME280;17386;43.846;25.950;2022-08-01T00:22:19;100730.41;;;23.61;60.41
20630;BME280;17386;43.846;25.950;2022-08-01T00:24:45;100734.69;;;23.63;60.24
20630;BME280;17386;43.846;25.950;2022-08-01T00:27:10;100727.06;;;23.57;60.49
20630;BME280;17386;43.846;25.950;2022-08-01T00:29:36;100719.22;;;23.54;60.73
20630;BME280;17386;43.846;25.950;2022-08-01T00:32:01;100727.06;;;23.57;61.05
20630;BME280;17386;43.846;25.950;2022-08-01T00:34:27;100725.91;;;23.60;61.47
20630;BME280;17386;43.846;25.950;2022-08-01T00:36:52;100729.75;;;23.47;61.92
20630;BME280;17386;43.846;25.950;2022-08-01T00:39:17;100728.13;;;23.35;62.72
20630;BME280;17386;43.846;25.950;2022-08-01T00:41:43;100714.09;;;23.20;62.81
20630;BME280;17386;43.846;25.950;2022-08-01T00:44:08;100730.44;;;23.09;63.30
20630;BME280;17386;43.846;25.950;2022-08-01T00:46:34;100726.97;;;22.98;63.63
20630;BME280;17386;43.846;25.950;2022-08-01T00:48:59;100719.91;;;23.06;63.15
20630;BME280;17386;43.846;25.950;2022-08-01T00:51:26;100711.88;;;23.05;63.13
20630;BME280;17386;43.846;25.950;2022-08-01T00:53:51;100715.50;;;23.15;62.87
20630;BME280;17386;43.846;25.950;2022-08-01T00:56:19;100726.66;;;23.22;62.45
20630;BME280;17386;43.846;25.950;2022-08-01T00:58:45;100726.50;;;23.23;62.26
20630;BME280;17386;43.846;25.950;2022-08-01T01:01:11;100720.50;;;23.19;62.42
20630;BME280;17386;43.846;25.950;2022-08-01T01:03:36;100727.34;;;23.14;62.13
20630;BME280;17386;43.846;25.950;2022-08-01T01:06:28;100721.19;;;23.12;62.38
20630;BME280;17386;43.846;25.950;2022-08-01T01:11:43;100718.34;;;23.13;62.38
20630;BME280;17386;43.846;25.950;2022-08-01T01:14:16;100722.78;;;23.14;62.27
20630;BME280;17386;43.846;25.950;2022-08-01T01:16:46;100719.31;;;23.12;62.45
20630;BME280;17386;43.846;25.950;2022-08-01T01:19:16;100716.38;;;23.15;62.45
20630;BME280;17386;43.846;25.950;2022-08-01T01:22:07;100717.34;;;23.14;62.48
20630;BME280;17386;43.846;25.950;2022-08-01T01:29:46;100725.22;;;23.17;62.12
20630;BME280;17386;43.846;25.950;2022-08-01T01:32:31;100713.91;;;23.12;62.02
20630;BME280;17386;43.846;25.950;2022-08-01T01:35:00;100716.06;;;23.09;61.89
20630;BME280;17386;43.846;25.950;2022-08-01T01:37:27;100711.88;;;23.05;62.22
20630;BME280;17386;43.846;25.950;2022-08-01T01:39:55;100705.75;;;23.03;62.26
20630;BME280;17386;43.846;25.950;2022-08-01T01:42:23;100706.03;;;23.00;62.21
20630;BME280;17386;43.846;25.950;2022-08-01T01:44:51;100700.41;;;22.91;61.85
20630;BME280;17386;43.846;25.950;2022-08-01T01:47:17;100698.69;;;22.90;62.02
20630;BME280;17386;43.846;25.950;2022-08-01T01:49:45;100694.06;;;22.81;62.01
20630;BME280;17386;43.846;25.950;2022-08-01T01:52:13;100693.06;;;22.82;61.89
20630;BME280;17386;43.846;25.950;2022-08-01T01:54:45;100689.50;;;22.82;62.13
20630;BME280;17386;43.846;25.950;2022-08-01T01:57:12;100684.69;;;22.85;62.33
20630;BME280;17386;43.846;25.950;2022-08-01T01:59:38;100680.03;;;22.87;62.04
20630;BME280;17386;43.846;25.950;2022-08-01T02:02:05;100670.75;;;22.90;61.33
20630;BME280;17386;43.846;25.950;2022-08-01T02:04:32;100683.75;;;22.96;61.24
20630;BME280;17386;43.846;25.950;2022-08-01T02:07:01;100685.44;;;22.87;61.34
20630;BME280;17386;43.846;25.950;2022-08-01T02:09:28;100682.72;;;22.87;61.31
20630;BME280;17386;43.846;25.950;2022-08-01T02:11:55;100678.16;;;22.88;61.48
20630;BME280;17386;43.846;25.950;2022-08-01T02:14:23;100683.19;;;22.92;61.46
20630;BME280;17386;43.846;25.950;2022-08-01T02:16:50;100688.72;;;22.91;61.65
20630;BME280;17386;43.846;25.950;2022-08-01T02:19:19;100689.84;;;22.88;61.66
20630;BME280;17386;43.846;25.950;2022-08-01T02:21:57;100686.94;;;22.80;61.89
20630;BME280;17386;43.846;25.950;2022-08-01T02:24:37;100685.22;;;22.79;61.95
20630;BME280;17386;43.846;25.950;2022-08-01T02:27:09;100683.19;;;22.72;62.21
20630;BME280;17386;43.846;25.950;2022-08-01T02:30:13;100684.31;;;22.69;62.40
20630;BME280;17386;43.846;25.950;2022-08-01T02:32:59;100690.25;;;22.63;62.78
20630;BME280;17386;43.846;25.950;2022-08-01T02:35:28;100688.34;;;22.54;63.39
20630;BME280;17386;43.846;25.950;2022-08-01T02:37:56;100685.50;;;22.34;64.29
20630;BME280;17386;43.846;25.950;2022-08-01T02:40:23;100683.75;;;22.24;65.16
20630;BME280;17386;43.846;25.950;2022-08-01T02:42:52;100689.69;;;22.06;66.69
20630;BME280;17386;43.846;25.950;2022-08-01T02:45:22;100685.16;;;21.96;67.80
20630;BME280;17386;43.846;25.950;2022-08-01T02:47:50;100674.97;;;21.99;68.05
20630;BME280;17386;43.846;25.950;2022-08-01T02:50:17;100676.91;;;22.08;67.66
20630;BME280;17386;43.846;25.950;2022-08-01T02:52:46;100670.25;;;22.13;67.26
20630;BME280;17386;43.846;25.950;2022-08-01T02:55:13;100672.03;;;22.23;66.98
20630;BME280;17386;43.846;25.950;2022-08-01T02:57:40;100673.81;;;22.34;66.21
20630;BME280;17386;43.846;25.950;2022-08-01T03:00:07;100675.00;;;22.41;65.74
20630;BME280;17386;43.846;25.950;2022-08-01T03:02:33;100668.47;;;22.44;65.03
20630;BME280;17386;43.846;25.950;2022-08-01T03:05:00;100676.19;;;22.48;64.79
20630;BME280;17386;43.846;25.950;2022-08-01T03:07:28;100671.50;;;22.50;64.26
20630;BME280;17386;43.846;25.950;2022-08-01T03:09:55;100666.41;;;22.57;63.24
20630;BME280;17386;43.846;25.950;2022-08-01T03:12:25;100664.16;;;22.62;62.97
20630;BME280;17386;43.846;25.950;2022-08-01T03:14:51;100667.72;;;22.62;62.69
20630;BME280;17386;43.846;25.950;2022-08-01T03:17:21;100665.84;;;22.53;62.59
20630;BME280;17386;43.846;25.950;2022-08-01T03:19:48;100677.47;;;22.44;62.57
20630;BME280;17386;43.846;25.950;2022-08-01T03:22:15;100685.59;;;22.44;61.85
20630;BME280;17386;43.846;25.950;2022-08-01T03:24:44;100686.78;;;22.51;61.51
20630;BME280;17386;43.846;25.950;2022-08-01T03:27:14;100681.56;;;22.38;61.43
20630;BME280;17386;43.846;25.950;2022-08-01T03:29:41;100683.59;;;22.46;61.46
20630;BME280;17386;43.846;25.950;2022-08-01T03:32:09;100671.66;;;22.49;61.63
20630;BME280;17386;43.846;25.950;2022-08-01T03:34:36;100674.50;;;22.47;61.35
20630;BME280;17386;43.846;25.950;2022-08-01T03:37:28;100670.47;;;22.42;61.13
20630;BME280;17386;43.846;25.950;2022-08-01T03:39:58;100678.19;;;22.46;61.05
20630;BME280;17386;43.846;25.950;2022-08-01T03:42:34;100670.06;;;22.46;61.05
20630;BME280;17386;43.846;25.950;2022-08-01T03:45:19;100684.19;;;22.50;60.26
20630;BME280;17386;43.846;25.950;2022-08-01T03:47:46;100679.38;;;22.53;60.34
20630;BME280;17386;43.846;25.950;2022-08-01T03:50:15;100684.31;;;22.48;60.21
20630;BME280;17386;43.846;25.950;2022-08-01T03:52:44;100677.47;;;22.44;60.24
20630;BME280;17386;43.846;25.950;2022-08-01T03:55:12;100672.34;;;22.51;59.63
20630;BME280;17386;43.846;25.950;2022-08-01T03:57:40;100668.69;;;22.52;59.71
20630;BME280;17386;43.846;25.950;2022-08-01T04:00:06;100681.63;;;22.48;59.35
20630;BME280;17386;43.846;25.950;2022-08-01T04:02:34;100674.50;;;22.47;59.60
20630;BME280;17386;43.846;25.950;2022-08-01T04:05:00;100677.53;;;22.54;59.71
20630;BME280;17386;43.846;25.950;2022-08-01T04:07:28;100680.69;;;22.59;59.51
20630;BME280;17386;43.846;25.950;2022-08-01T04:09:54;100665.75;;;22.64;59.23
20630;BME280;17386;43.846;25.950;2022-08-01T04:12:20;100673.16;;;22.62;58.87
20630;BME280;17386;43.846;25.950;2022-08-01T04:14:46;100670.31;;;22.64;58.54
20630;BME280;17386;43.846;25.950;2022-08-01T04:17:11;100669.19;;;22.66;58.24
20630;BME280;17386;43.846;25.950;2022-08-01T04:19:37;100662.91;;;22.66;58.71
20630;BME280;17386;43.846;25.950;2022-08-01T04:22:03;100664.09;;;22.73;58.44
20630;BME280;17386;43.846;25.950;2022-08-01T04:24:30;100659.41;;;22.75;58.18
20630;BME280;17386;43.846;25.950;2022-08-01T04:26:58;100667.84;;;22.82;58.22
20630;BME280;17386;43.846;25.950;2022-08-01T04:29:26;100666.63;;;22.86;57.94
20630;BME280;17386;43.846;25.950;2022-08-01T04:31:54;100661.63;;;22.91;57.31
20630;BME280;17386;43.846;25.950;2022-08-01T04:34:23;100665.19;;;22.91;57.08
20630;BME280;17386;43.846;25.950;2022-08-01T04:36:52;100658.53;;;22.96;57.02
20630;BME280;17386;43.846;25.950;2022-08-01T04:39:20;100667.09;;;23.01;56.96
20630;BME280;17386;43.846;25.950;2022-08-01T04:41:49;100659.13;;;22.99;56.86
20630;BME280;17386;43.846;25.950;2022-08-01T04:44:15;100663.97;;;23.05;56.80
20630;BME280;17386;43.846;25.950;2022-08-01T04:46:42;100661.16;;;23.07;56.33
20630;BME280;17386;43.846;25.950;2022-08-01T04:49:10;100658.84;;;23.02;56.81
20630;BME280;17386;43.846;25.950;2022-08-01T04:51:37;100650.84;;;23.01;56.34
20630;BME280;17386;43.846;25.950;2022-08-01T04:54:14;100655.13;;;23.03;56.67
20630;BME280;17386;43.846;25.950;2022-08-01T04:56:40;100664.41;;;23.10;56.83
20630;BME280;17386;43.846;25.950;2022-08-01T04:59:06;100660.75;;;23.21;57.07
20630;BME280;17386;43.846;25.950;2022-08-01T05:01:50;100665.59;;;23.17;56.52
20630;BME280;17386;43.846;25.950;2022-08-01T05:04:16;100668.47;;;23.26;56.42
20630;BME280;17386;43.846;25.950;2022-08-01T05:06:41;100644.47;;;22.81;56.40
20630;BME280;17386;43.846;25.950;2022-08-01T05:09:07;100658.94;;;22.91;56.68
20630;BME280;17386;43.846;25.950;2022-08-01T05:11:32;100665.81;;;23.05;56.71
20630;BME280;17386;43.846;25.950;2022-08-01T05:13:57;100663.97;;;23.05;55.66
20630;BME280;17386;43.846;25.950;2022-08-01T05:16:23;100659.72;;;23.12;55.28
20630;BME280;17386;43.846;25.950;2022-08-01T05:18:48;100668.28;;;23.17;56.02
20630;BME280;17386;43.846;25.950;2022-08-01T05:21:14;100661.75;;;23.20;55.31
20630;BME280;17386;43.846;25.950;2022-08-01T05:23:39;100659.47;;;23.15;54.53
20630;BME280;17386;43.846;25.950;2022-08-01T05:26:04;100658.91;;;23.22;54.58
20630;BME280;17386;43.846;25.950;2022-08-01T05:28:30;100659.16;;;23.18;54.72
20630;BME280;17386;43.846;25.950;2022-08-01T05:30:55;100657.75;;;23.14;55.31
20630;BME280;17386;43.846;25.950;2022-08-01T05:33:21;100655.34;;;23.21;54.92
20630;BME280;17386;43.846;25.950;2022-08-01T05:35:47;100644.06;;;23.26;54.85
20630;BME280;17386;43.846;25.950;2022-08-01T05:38:12;100656.06;;;23.33;54.68
20630;BME280;17386;43.846;25.950;2022-08-01T05:40:38;100653.09;;;23.45;55.36
20630;BME280;17386;43.846;25.950;2022-08-01T05:43:03;100658.97;;;23.51;54.53
20630;BME280;17386;43.846;25.950;2022-08-01T05:45:28;100655.41;;;23.50;54.49
20630;BME280;17386;43.846;25.950;2022-08-01T05:47:54;100653.31;;;23.63;53.97
20630;BME280;17386;43.846;25.950;2022-08-01T05:50:19;100656.25;;;23.60;53.33
20630;BME280;17386;43.846;25.950;2022-08-01T05:52:45;100651.75;;;23.61;54.11
20630;BME280;17386;43.846;25.950;2022-08-01T05:55:10;100656.31;;;23.70;53.50
20630;BME280;17386;43.846;25.950;2022-08-01T05:57:35;100656.63;;;23.77;53.79
20630;BME280;17386;43.846;25.950;2022-08-01T06:00:01;100669.31;;;23.86;53.43
20630;BME280;17386;43.846;25.950;2022-08-01T06:02:26;100662.31;;;23.93;53.08
20630;BME280;17386;43.846;25.950;2022-08-01T06:04:52;100659.63;;;24.02;52.65
20630;BME280;17386;43.846;25.950;2022-08-01T06:07:18;100668.34;;;24.16;52.85
20630;BME280;17386;43.846;25.950;2022-08-01T06:09:43;100667.31;;;24.07;51.90
20630;BME280;17386;43.846;25.950;2022-08-01T06:12:09;100665.47;;;24.17;51.82
20630;BME280;17386;43.846;25.950;2022-08-01T06:14:34;100666.72;;;24.33;52.61
20630;BME280;17386;43.846;25.950;2022-08-01T06:16:59;100655.03;;;24.42;52.50
20630;BME280;17386;43.846;25.950;2022-08-01T06:19:25;100656.84;;;24.61;52.37
20630;BME280;17386;43.846;25.950;2022-08-01T06:21:51;100662.28;;;24.61;50.79
20630;BME280;17386;43.846;25.950;2022-08-01T06:24:16;100655.41;;;24.56;51.04
20630;BME280;17386;43.846;25.950;2022-08-01T06:26:42;100662.13;;;24.62;50.86
20630;BME280;17386;43.846;25.950;2022-08-01T06:29:07;100666.38;;;24.74;50.92
20630;BME280;17386;43.846;25.950;2022-08-01T06:31:33;100673.78;;;24.82;51.13
20630;BME280;17386;43.846;25.950;2022-08-01T06:33:58;100669.63;;;24.88;50.55
20630;BME280;17386;43.846;25.950;2022-08-01T06:36:23;100667.22;;;24.75;51.51
20630;BME280;17386;43.846;25.950;2022-08-01T06:38:50;100665.63;;;24.82;51.05
20630;BME280;17386;43.846;25.950;2022-08-01T06:41:16;100658.75;;;24.88;51.16
20630;BME280;17386;43.846;25.950;2022-08-01T06:43:41;100654.59;;;24.93;51.40
20630;BME280;17386;43.846;25.950;2022-08-01T06:46:07;100649.56;;;24.98;52.27
20630;BME280;17386;43.846;25.950;2022-08-01T06:48:32;100649.31;;;24.92;52.29
20630;BME280;17386;43.846;25.950;2022-08-01T06:50:57;100659.44;;;24.90;52.62
20630;BME280;17386;43.846;25.950;2022-08-01T06:53:38;100653.81;;;25.10;51.84
20630;BME280;17386;43.846;25.950;2022-08-01T06:56:05;100660.50;;;25.16;51.79
20630;BME280;17386;43.846;25.950;2022-08-01T06:58:31;100652.03;;;24.92;51.64
20630;BME280;17386;43.846;25.950;2022-08-01T07:00:56;100661.50;;;24.78;53.05
20630;BME280;17386;43.846;25.950;2022-08-01T07:03:22;100657.00;;;24.96;53.52
20630;BME280;17386;43.846;25.950;2022-08-01T07:05:47;100649.09;;;25.13;53.54
20630;BME280;17386;43.846;25.950;2022-08-01T07:08:13;100652.94;;;25.20;54.17
20630;BME280;17386;43.846;25.950;2022-08-01T07:10:38;100653.47;;;25.23;54.45
20630;BME280;17386;43.846;25.950;2022-08-01T07:13:03;100656.94;;;25.43;54.71
20630;BME280;17386;43.846;25.950;2022-08-01T07:15:29;100646.13;;;25.33;55.57
20630;BME280;17386;43.846;25.950;2022-08-01T07:17:54;100657.00;;;25.51;56.18
20630;BME280;17386;43.846;25.950;2022-08-01T07:20:20;100658.63;;;25.44;57.62
20630;BME280;17386;43.846;25.950;2022-08-01T07:22:45;100661.00;;;25.57;57.22
20630;BME280;17386;43.846;25.950;2022-08-01T07:25:10;100657.03;;;25.69;56.88
20630;BME280;17386;43.846;25.950;2022-08-01T07:27:36;100658.06;;;25.86;57.44
20630;BME280;17386;43.846;25.950;2022-08-01T07:30:03;100655.66;;;26.01;57.74
20630;BME280;17386;43.846;25.950;2022-08-01T07:32:29;100661.34;;;26.07;57.86
20630;BME280;17386;43.846;25.950;2022-08-01T07:34:55;100659.88;;;25.95;58.75
20630;BME280;17386;43.846;25.950;2022-08-01T07:37:21;100657.13;;;26.13;59.14
20630;BME280;17386;43.846;25.950;2022-08-01T07:39:46;100651.28;;;26.26;59.45
20630;BME280;17386;43.846;25.950;2022-08-01T07:42:11;100658.44;;;26.44;59.81
20630;BME280;17386;43.846;25.950;2022-08-01T07:44:37;100658.06;;;26.39;60.35
20630;BME280;17386;43.846;25.950;2022-08-01T07:47:04;100648.28;;;26.55;60.41
20630;BME280;17386;43.846;25.950;2022-08-01T07:49:30;100645.53;;;26.81;60.27
20630;BME280;17386;43.846;25.950;2022-08-01T07:51:55;100643.97;;;27.04;60.04
20630;BME280;17386;43.846;25.950;2022-08-01T07:54:21;100648.28;;;27.07;60.81
20630;BME280;17386;43.846;25.950;2022-08-01T07:56:49;100656.03;;;27.02;61.68
20630;BME280;17386;43.846;25.950;2022-08-01T07:59:15;100649.78;;;26.75;63.27
20630;BME280;17386;43.846;25.950;2022-08-01T08:01:40;100645.94;;;26.60;63.64
20630;BME280;17386;43.846;25.950;2022-08-01T08:04:06;100653.06;;;26.87;64.01
20630;BME280;17386;43.846;25.950;2022-08-01T08:06:32;100648.22;;;26.98;64.15
20630;BME280;17386;43.846;25.950;2022-08-01T08:08:57;100651.03;;;27.15;64.17
20630;BME280;17386;43.846;25.950;2022-08-01T08:11:23;100647.06;;;27.09;64.46
20630;BME280;17386;43.846;25.950;2022-08-01T08:13:48;100654.06;;;26.78;64.67
20630;BME280;17386;43.846;25.950;2022-08-01T08:16:14;100644.50;;;26.73;65.50
20630;BME280;17386;43.846;25.950;2022-08-01T08:18:39;100658.06;;;26.91;64.58
20630;BME280;17386;43.846;25.950;2022-08-01T08:21:04;100650.38;;;26.95;63.80
20630;BME280;17386;43.846;25.950;2022-08-01T08:23:30;100651.53;;;26.84;64.17
20630;BME280;17386;43.846;25.950;2022-08-01T08:26:14;100652.03;;;27.06;63.07
20630;BME280;17386;43.846;25.950;2022-08-01T08:28:39;100641.38;;;27.29;61.59
20630;BME280;17386;43.846;25.950;2022-08-01T08:31:05;100643.63;;;27.49;60.49
20630;BME280;17386;43.846;25.950;2022-08-01T08:33:30;100656.19;;;27.76;59.12
20630;BME280;17386;43.846;25.950;2022-08-01T08:35:56;100656.72;;;27.80;58.07
20630;BME280;17386;43.846;25.950;2022-08-01T08:38:21;100663.69;;;27.99;57.77
20630;BME280;17386;43.846;25.950;2022-08-01T08:40:47;100655.53;;;28.15;56.85
20630;BME280;17386;43.846;25.950;2022-08-01T08:43:14;100659.31;;;28.30;55.76
20630;BME280;17386;43.846;25.950;2022-08-01T08:45:41;100658.25;;;28.48;54.56
20630;BME280;17386;43.846;25.950;2022-08-01T08:48:07;100652.97;;;28.30;54.66
20630;BME280;17386;43.846;25.950;2022-08-01T08:50:33;100665.22;;;27.85;56.04
20630;BME280;17386;43.846;25.950;2022-08-01T08:53:00;100670.09;;;27.57;56.23
20630;BME280;17386;43.846;25.950;2022-08-01T08:55:27;100668.66;;;27.37;57.02
20630;BME280;17386;43.846;25.950;2022-08-01T08:57:54;100658.31;;;27.57;55.64
20630;BME280;17386;43.846;25.950;2022-08-01T09:00:20;100664.53;;;27.83;54.07
20630;BME280;17386;43.846;25.950;2022-08-01T09:02:47;100673.81;;;28.15;52.03
20630;BME280;17386;43.846;25.950;2022-08-01T09:05:14;100668.69;;;28.36;50.81
20630;BME280;17386;43.846;25.950;2022-08-01T09:07:40;100666.16;;;28.34;50.03
20630;BME280;17386;43.846;25.950;2022-08-01T09:10:08;100673.13;;;28.37;49.99
20630;BME280;17386;43.846;25.950;2022-08-01T09:12:35;100661.34;;;28.45;49.40
20630;BME280;17386;43.846;25.950;2022-08-01T09:15:01;100652.94;;;28.71;48.98
20630;BME280;17386;43.846;25.950;2022-08-01T09:17:27;100663.00;;;28.78;49.35
20630;BME280;17386;43.846;25.950;2022-08-01T09:19:54;100665.19;;;28.99;48.43
20630;BME280;17386;43.846;25.950;2022-08-01T09:22:24;100662.22;;;29.17;47.45
20630;BME280;17386;43.846;25.950;2022-08-01T09:25:00;100660.44;;;29.32;47.00
20630;BME280;17386;43.846;25.950;2022-08-01T09:27:26;100658.81;;;29.46;46.29
20630;BME280;17386;43.846;25.950;2022-08-01T09:29:52;100655.53;;;29.59;45.78
20630;BME280;17386;43.846;25.950;2022-08-01T09:32:19;100658.22;;;29.67;45.69
20630;BME280;17386;43.846;25.950;2022-08-01T09:34:44;100656.31;;;29.67;44.54
20630;BME280;17386;43.846;25.950;2022-08-01T09:37:12;100644.72;;;29.88;43.89
20630;BME280;17386;43.846;25.950;2022-08-01T09:39:43;100640.63;;;30.07;43.76
20630;BME280;17386;43.846;25.950;2022-08-01T09:42:25;100655.19;;;30.08;43.88
20630;BME280;17386;43.846;25.950;2022-08-01T09:44:50;100648.63;;;29.94;44.52
20630;BME280;17386;43.846;25.950;2022-08-01T09:47:18;100651.78;;;30.29;44.28
20630;BME280;17386;43.846;25.950;2022-08-01T09:49:53;100649.00;;;30.66;43.62
20630;BME280;17386;43.846;25.950;2022-08-01T09:52:21;100647.22;;;30.73;43.08
20630;BME280;17386;43.846;25.950;2022-08-01T09:55:02;100655.50;;;30.50;43.58
20630;BME280;17386;43.846;25.950;2022-08-01T09:57:29;100652.94;;;30.34;43.95
20630;BME280;17386;43.846;25.950;2022-08-01T09:59:56;100661.00;;;30.13;44.37
20630;BME280;17386;43.846;25.950;2022-08-01T10:02:38;100661.28;;;29.95;45.14
20630;BME280;17386;43.846;25.950;2022-08-01T10:05:07;100666.91;;;29.70;45.98
20630;BME280;17386;43.846;25.950;2022-08-01T10:07:34;100661.00;;;29.59;46.07
20630;BME280;17386;43.846;25.950;2022-08-01T10:10:13;100668.31;;;29.27;46.25
20630;BME280;17386;43.846;25.950;2022-08-01T10:12:39;100669.25;;;29.11;46.62
20630;BME280;17386;43.846;25.950;2022-08-01T10:15:05;100668.94;;;28.98;47.21
20630;BME280;17386;43.846;25.950;2022-08-01T10:17:33;100670.69;;;28.91;47.59
20630;BME280;17386;43.846;25.950;2022-08-01T10:20:01;100676.44;;;28.88;48.10
20630;BME280;17386;43.846;25.950;2022-08-01T10:22:30;100676.00;;;28.60;48.09
20630;BME280;17386;43.846;25.950;2022-08-01T10:24:56;100680.47;;;28.53;48.71
20630;BME280;17386;43.846;25.950;2022-08-01T10:27:25;100677.38;;;28.48;49.81
20630;BME280;17386;43.846;25.950;2022-08-01T10:30:02;100679.44;;;28.29;50.91
20630;BME280;17386;43.846;25.950;2022-08-01T10:32:35;100677.72;;;28.12;52.45
20630;BME280;17386;43.846;25.950;2022-08-01T10:35:02;100674.81;;;28.05;52.51
20630;BME280;17386;43.846;25.950;2022-08-01T10:37:28;100674.13;;;27.95;54.56
20630;BME280;17386;43.846;25.950;2022-08-01T10:39:54;100671.22;;;27.89;57.04
20630;BME280;17386;43.846;25.950;2022-08-01T10:42:20;100669.22;;;27.48;59.58
20630;BME280;17386;43.846;25.950;2022-08-01T10:44:47;100668.81;;;27.27;60.01
20630;BME280;17386;43.846;25.950;2022-08-01T10:47:24;100669.38;;;27.39;59.87
20630;BME280;17386;43.846;25.950;2022-08-01T10:52:29;100662.53;;;27.35;59.92
20630;BME280;17386;43.846;25.950;2022-08-01T10:55:07;100664.97;;;27.46;59.11
20630;BME280;17386;43.846;25.950;2022-08-01T10:57:46;100665.72;;;27.72;58.67
20630;BME280;17386;43.846;25.950;2022-08-01T11:00:20;100662.50;;;27.85;57.83
20630;BME280;17386;43.846;25.950;2022-08-01T11:02:59;100661.81;;;27.83;56.30
20630;BME280;17386;43.846;25.950;2022-08-01T11:05:27;100664.41;;;28.01;55.81
20630;BME280;17386;43.846;25.950;2022-08-01T11:07:54;100663.38;;;28.10;55.12
20630;BME280;17386;43.846;25.950;2022-08-01T11:10:40;100651.59;;;28.10;55.10
20630;BME280;17386;43.846;25.950;2022-08-01T11:13:08;100659.63;;;28.11;53.60
20630;BME280;17386;43.846;25.950;2022-08-01T11:15:39;100659.09;;;28.24;51.70
20630;BME280;17386;43.846;25.950;2022-08-01T11:21:10;100658.75;;;28.59;51.48
20630;BME280;17386;43.846;25.950;2022-08-01T11:23:48;100653.47;;;29.22;50.03
20630;BME280;17386;43.846;25.950;2022-08-01T11:26:15;100657.00;;;29.69;47.49
20630;BME280;17386;43.846;25.950;2022-08-01T11:28:42;100648.25;;;29.74;47.09
20630;BME280;17386;43.846;25.950;2022-08-01T11:44:04;100651.50;;;29.69;47.40
20630;BME280;17386;43.846;25.950;2022-08-01T11:54:39;100649.13;;;30.20;46.18
20630;BME280;17386;43.846;25.950;2022-08-01T11:57:08;100645.34;;;30.21;45.77
20630;BME280;17386;43.846;25.950;2022-08-01T11:59:43;100643.59;;;30.43;45.28
20630;BME280;17386;43.846;25.950;2022-08-01T12:02:25;100647.81;;;30.46;43.84
20630;BME280;17386;43.846;25.950;2022-08-01T12:07:19;100638.59;;;30.09;43.92
20630;BME280;17386;43.846;25.950;2022-08-01T12:09:47;100634.97;;;30.09;43.84
20630;BME280;17386;43.846;25.950;2022-08-01T12:12:17;100624.75;;;30.03;44.15
20630;BME280;17386;43.846;25.950;2022-08-01T12:14:44;100634.19;;;30.23;42.80
20630;BME280;17386;43.846;25.950;2022-08-01T12:17:10;100625.88;;;30.31;42.35
20630;BME280;17386;43.846;25.950;2022-08-01T12:19:36;100612.81;;;30.18;42.99
20630;BME280;17386;43.846;25.950;2022-08-01T12:22:14;100629.00;;;30.28;42.52
20630;BME280;17386;43.846;25.950;2022-08-01T12:24:42;100619.84;;;30.36;42.72
20630;BME280;17386;43.846;25.950;2022-08-01T12:27:09;100610.59;;;30.37;42.22
20630;BME280;17386;43.846;25.950;2022-08-01T12:29:42;100618.63;;;30.38;42.91
20630;BME280;17386;43.846;25.950;2022-08-01T12:32:29;100630.16;;;30.34;42.34
20630;BME280;17386;43.846;25.950;2022-08-01T12:34:58;100622.09;;;30.32;42.30
20630;BME280;17386;43.846;25.950;2022-08-01T12:37:25;100629.97;;;30.35;41.79
20630;BME280;17386;43.846;25.950;2022-08-01T12:39:51;100628.16;;;30.28;41.75
20630;BME280;17386;43.846;25.950;2022-08-01T12:42:17;100627.59;;;30.32;42.14
20630;BME280;17386;43.846;25.950;2022-08-01T12:44:47;100623.56;;;30.43;42.45
20630;BME280;17386;43.846;25.950;2022-08-01T12:47:13;100619.31;;;30.55;41.37
20630;BME280;17386;43.846;25.950;2022-08-01T12:49:41;100614.22;;;30.67;42.12
20630;BME280;17386;43.846;25.950;2022-08-01T12:52:07;100611.69;;;30.80;40.99
20630;BME280;17386;43.846;25.950;2022-08-01T12:55:05;100613.28;;;30.74;40.78
20630;BME280;17386;43.846;25.950;2022-08-01T12:57:31;100624.19;;;30.83;40.49
20630;BME280;17386;43.846;25.950;2022-08-01T13:00:12;100611.41;;;30.90;40.68
20630;BME280;17386;43.846;25.950;2022-08-01T13:02:38;100607.03;;;31.10;40.12
20630;BME280;17386;43.846;25.950;2022-08-01T13:05:05;100615.34;;;31.02;40.94
20630;BME280;17386;43.846;25.950;2022-08-01T13:07:39;100610.81;;;31.09;40.29
20630;BME280;17386;43.846;25.950;2022-08-01T13:10:05;100596.16;;;31.17;39.63
20630;BME280;17386;43.846;25.950;2022-08-01T13:12:31;100614.75;;;31.21;39.62
20630;BME280;17386;43.846;25.950;2022-08-01T13:14:57;100615.28;;;31.10;39.74
20630;BME280;17386;43.846;25.950;2022-08-01T13:17:33;100608.47;;;30.91;38.71
20630;BME280;17386;43.846;25.950;2022-08-01T13:20:01;100607.31;;;31.00;38.37
20630;BME280;17386;43.846;25.950;2022-08-01T13:22:37;100605.13;;;31.25;37.98